sensor_id;sensor_type;location;lat;lon;timestamp;P1;durP1;ratioP1;P2;durP2;ratioP2
23228;SDS011;11783;50.350;6.576;2024-01-15T00:01:46;32.65;;;12.43;;
23228;SDS011;11783;50.350;6.576;2024-01-15T00:04:12;33.08;;;12.65;;
23228;SDS011;11783;50.350;6.576;2024-01-15T00:06:37;31.23;;;12.18;;
23228;SDS011;11783;50.350;6.576;2024-01-15T00:09:02;28.60;;;12.15;;
23228;SDS011;11783;50.350;6.576;2024-01-15T00:11:28;35.50;;;13.30;;
23228;SDS011;11783;50.350;6.576;2024-01-15T00:13:53;32.92;;;12.52;;
23228;SDS011;11783;50.350;6.576;2024-01-15T00:16:19;29.17;;;12.32;;
23228;SDS011;11783;50.350;6.576;2024-01-15T00:18:44;35.17;;;12.82;;
23228;SDS011;11783;50.350;6.576;2024-01-15T00:21:10;31.85;;;13.20;;
23228;SDS011;11783;50.350;6.576;2024-01-15T00:23:35;35.00;;;12.98;;
23228;SDS011;11783;50.350;6.576;2024-01-15T00:26:01;31.15;;;13.57;;
23228;SDS011;11783;50.350;6.576;2024-01-15T00:28:26;34.80;;;11.85;;
23228;SDS011;11783;50.350;6.576;2024-01-15T00:30:52;31.52;;;12.65;;
23228;SDS011;11783;50.350;6.576;2024-01-15T00:33:17;30.45;;;12.45;;
23228;SDS011;11783;50.350;6.576;2024-01-15T00:35:43;27.90;;;11.70;;
23228;SDS011;11783;50.350;6.576;2024-01-15T00:38:08;29.67;;;11.15;;
23228;SDS011;11783;50.350;6.576;2024-01-15T00:40:34;26.10;;;11.60;;
23228;SDS011;11783;50.350;6.576;2024-01-15T00:42:59;28.40;;;11.45;;
23228;SDS011;11783;50.350;6.576;2024-01-15T00:45:25;30.23;;;10.68;;
23228;SDS011;11783;50.350;6.576;2024-01-15T00:47:50;29.98;;;11.63;;
23228;SDS011;11783;50.350;6.576;2024-01-15T00:50:16;28.55;;;11.65;;
23228;SDS011;11783;50.350;6.576;2024-01-15T00:52:42;30.33;;;12.20;;
23228;SDS011;11783;50.350;6.576;2024-01-15T00:55:07;29.13;;;12.00;;
23228;SDS011;11783;50.350;6.576;2024-01-15T00:57:33;34.50;;;12.18;;
23228;SDS011;11783;50.350;6.576;2024-01-15T00:59:58;32.15;;;12.13;;
23228;SDS011;11783;50.350;6.576;2024-01-15T01:02:24;34.45;;;12.30;;
23228;SDS011;11783;50.350;6.576;2024-01-15T01:04:49;33.40;;;12.48;;
23228;SDS011;11783;50.350;6.576;2024-01-15T01:07:15;34.03;;;13.57;;
23228;SDS011;11783;50.350;6.576;2024-01-15T01:09:40;34.67;;;12.40;;
23228;SDS011;11783;50.350;6.576;2024-01-15T01:12:06;38.08;;;13.80;;
23228;SDS011;11783;50.350;6.576;2024-01-15T01:14:31;33.85;;;12.43;;
23228;SDS011;11783;50.350;6.576;2024-01-15T01:16:57;30.08;;;11.77;;
23228;SDS011;11783;50.350;6.576;2024-01-15T01:19:23;33.22;;;13.10;;
23228;SDS011;11783;50.350;6.576;2024-01-15T01:21:50;36.63;;;13.65;;
23228;SDS011;11783;50.350;6.576;2024-01-15T01:24:16;33.15;;;12.63;;
23228;SDS011;11783;50.350;6.576;2024-01-15T01:26:41;32.97;;;12.77;;
23228;SDS011;11783;50.350;6.576;2024-01-15T01:29:07;36.63;;;13.73;;
23228;SDS011;11783;50.350;6.576;2024-01-15T01:31:33;32.60;;;12.40;;
23228;SDS011;11783;50.350;6.576;2024-01-15T01:33:58;34.97;;;12.43;;
23228;SDS011;11783;50.350;6.576;2024-01-15T01:36:24;36.63;;;12.68;;
23228;SDS011;11783;50.350;6.576;2024-01-15T01:38:49;35.38;;;12.45;;
23228;SDS011;11783;50.350;6.576;2024-01-15T01:41:21;35.65;;;12.45;;
23228;SDS011;11783;50.350;6.576;2024-01-15T01:43:46;39.25;;;13.57;;
23228;SDS011;11783;50.350;6.576;2024-01-15T01:46:12;36.22;;;13.52;;
23228;SDS011;11783;50.350;6.576;2024-01-15T01:48:37;36.53;;;12.50;;
23228;SDS011;11783;50.350;6.576;2024-01-15T01:51:03;38.08;;;13.20;;
23228;SDS011;11783;50.350;6.576;2024-01-15T01:53:29;29.80;;;12.30;;
23228;SDS011;11783;50.350;6.576;2024-01-15T01:55:57;33.35;;;12.20;;
23228;SDS011;11783;50.350;6.576;2024-01-15T01:58:23;37.30;;;13.40;;
23228;SDS011;11783;50.350;6.576;2024-01-15T02:00:48;34.70;;;12.50;;
23228;SDS011;11783;50.350;6.576;2024-01-15T02:03:14;33.95;;;12.63;;
23228;SDS011;11783;50.350;6.576;2024-01-15T02:05:40;32.83;;;12.95;;
23228;SDS011;11783;50.350;6.576;2024-01-15T02:08:08;29.58;;;12.48;;
23228;SDS011;11783;50.350;6.576;2024-01-15T02:10:33;33.38;;;12.60;;
23228;SDS011;11783;50.350;6.576;2024-01-15T02:12:58;32.65;;;11.95;;
23228;SDS011;11783;50.350;6.576;2024-01-15T02:15:24;30.27;;;12.35;;
23228;SDS011;11783;50.350;6.576;2024-01-15T02:18:05;29.75;;;12.45;;
23228;SDS011;11783;50.350;6.576;2024-01-15T02:20:35;32.60;;;11.95;;
23228;SDS011;11783;50.350;6.576;2024-01-15T02:23:19;33.15;;;12.10;;
23228;SDS011;11783;50.350;6.576;2024-01-15T02:25:45;34.60;;;11.95;;
23228;SDS011;11783;50.350;6.576;2024-01-15T02:28:12;29.10;;;11.48;;
23228;SDS011;11783;50.350;6.576;2024-01-15T02:30:42;37.33;;;12.52;;
23228;SDS011;11783;50.350;6.576;2024-01-15T02:33:08;32.47;;;11.90;;
23228;SDS011;11783;50.350;6.576;2024-01-15T02:35:35;34.60;;;12.25;;
23228;SDS011;11783;50.350;6.576;2024-01-15T02:38:01;30.50;;;11.80;;
23228;SDS011;11783;50.350;6.576;2024-01-15T02:40:27;36.42;;;12.68;;
23228;SDS011;11783;50.350;6.576;2024-01-15T02:42:53;34.72;;;12.32;;
23228;SDS011;11783;50.350;6.576;2024-01-15T02:45:19;30.95;;;12.48;;
23228;SDS011;11783;50.350;6.576;2024-01-15T02:47:44;29.88;;;12.10;;
23228;SDS011;11783;50.350;6.576;2024-01-15T02:50:10;29.73;;;11.80;;
23228;SDS011;11783;50.350;6.576;2024-01-15T02:52:35;32.45;;;11.05;;
23228;SDS011;11783;50.350;6.576;2024-01-15T02:55:01;31.08;;;11.75;;
23228;SDS011;11783;50.350;6.576;2024-01-15T02:57:26;30.23;;;11.75;;
23228;SDS011;11783;50.350;6.576;2024-01-15T02:59:51;32.90;;;11.38;;
23228;SDS011;11783;50.350;6.576;2024-01-15T03:02:17;28.17;;;10.48;;
23228;SDS011;11783;50.350;6.576;2024-01-15T03:04:43;31.60;;;12.02;;
23228;SDS011;11783;50.350;6.576;2024-01-15T03:07:09;29.58;;;11.60;;
23228;SDS011;11783;50.350;6.576;2024-01-15T03:09:34;29.98;;;11.55;;
23228;SDS011;11783;50.350;6.576;2024-01-15T03:12:00;27.75;;;10.73;;
23228;SDS011;11783;50.350;6.576;2024-01-15T03:14:25;27.55;;;11.82;;
23228;SDS011;11783;50.350;6.576;2024-01-15T03:16:51;28.92;;;11.23;;
23228;SDS011;11783;50.350;6.576;2024-01-15T03:19:17;26.88;;;11.35;;
23228;SDS011;11783;50.350;6.576;2024-01-15T03:21:43;25.85;;;9.98;;
23228;SDS011;11783;50.350;6.576;2024-01-15T03:24:08;25.05;;;10.63;;
23228;SDS011;11783;50.350;6.576;2024-01-15T03:26:34;25.85;;;10.85;;
23228;SDS011;11783;50.350;6.576;2024-01-15T03:28:59;31.17;;;11.70;;
23228;SDS011;11783;50.350;6.576;2024-01-15T03:31:25;31.05;;;12.00;;
23228;SDS011;11783;50.350;6.576;2024-01-15T03:33:50;26.15;;;11.88;;
23228;SDS011;11783;50.350;6.576;2024-01-15T03:36:15;28.88;;;10.88;;
23228;SDS011;11783;50.350;6.576;2024-01-15T03:38:41;30.98;;;11.98;;
23228;SDS011;11783;50.350;6.576;2024-01-15T03:41:07;30.42;;;11.68;;
23228;SDS011;11783;50.350;6.576;2024-01-15T03:43:33;31.92;;;11.88;;
23228;SDS011;11783;50.350;6.576;2024-01-15T03:45:58;31.92;;;11.77;;
23228;SDS011;11783;50.350;6.576;2024-01-15T03:48:24;31.63;;;12.00;;
23228;SDS011;11783;50.350;6.576;2024-01-15T03:50:50;31.88;;;11.75;;
23228;SDS011;11783;50.350;6.576;2024-01-15T03:53:15;33.50;;;12.85;;
23228;SDS011;11783;50.350;6.576;2024-01-15T03:55:41;31.25;;;11.55;;
23228;SDS011;11783;50.350;6.576;2024-01-15T03:58:07;28.20;;;11.15;;
23228;SDS011;11783;50.350;6.576;2024-01-15T04:00:32;33.42;;;13.52;;
23228;SDS011;11783;50.350;6.576;2024-01-15T04:02:58;35.42;;;13.48;;
23228;SDS011;11783;50.350;6.576;2024-01-15T04:05:23;40.03;;;13.60;;
23228;SDS011;11783;50.350;6.576;2024-01-15T04:07:49;36.95;;;12.88;;
23228;SDS011;11783;50.350;6.576;2024-01-15T04:10:14;31.58;;;13.20;;
23228;SDS011;11783;50.350;6.576;2024-01-15T04:12:39;33.95;;;13.15;;
23228;SDS011;11783;50.350;6.576;2024-01-15T04:15:05;32.08;;;12.65;;
23228;SDS011;11783;50.350;6.576;2024-01-15T04:17:31;36.42;;;13.32;;
23228;SDS011;11783;50.350;6.576;2024-01-15T04:19:56;33.75;;;13.50;;
23228;SDS011;11783;50.350;6.576;2024-01-15T04:22:22;34.50;;;13.27;;
23228;SDS011;11783;50.350;6.576;2024-01-15T04:24:48;32.10;;;12.98;;
23228;SDS011;11783;50.350;6.576;2024-01-15T04:27:13;32.70;;;12.05;;
23228;SDS011;11783;50.350;6.576;2024-01-15T04:29:39;32.05;;;12.63;;
23228;SDS011;11783;50.350;6.576;2024-01-15T04:32:04;28.33;;;12.23;;
23228;SDS011;11783;50.350;6.576;2024-01-15T04:34:30;31.55;;;12.60;;
23228;SDS011;11783;50.350;6.576;2024-01-15T04:36:56;34.80;;;13.18;;
23228;SDS011;11783;50.350;6.576;2024-01-15T04:39:21;32.20;;;12.60;;
23228;SDS011;11783;50.350;6.576;2024-01-15T04:41:47;31.92;;;13.05;;
23228;SDS011;11783;50.350;6.576;2024-01-15T04:44:12;30.35;;;11.80;;
23228;SDS011;11783;50.350;6.576;2024-01-15T04:46:38;28.52;;;12.18;;
23228;SDS011;11783;50.350;6.576;2024-01-15T04:49:03;27.90;;;10.93;;
23228;SDS011;11783;50.350;6.576;2024-01-15T04:51:29;29.23;;;11.82;;
23228;SDS011;11783;50.350;6.576;2024-01-15T04:53:54;29.13;;;11.90;;
23228;SDS011;11783;50.350;6.576;2024-01-15T04:56:20;27.05;;;11.32;;
23228;SDS011;11783;50.350;6.576;2024-01-15T04:58:45;30.13;;;11.07;;
23228;SDS011;11783;50.350;6.576;2024-01-15T05:01:11;28.20;;;11.75;;
23228;SDS011;11783;50.350;6.576;2024-01-15T05:03:37;24.75;;;10.98;;
23228;SDS011;11783;50.350;6.576;2024-01-15T05:06:02;32.88;;;11.77;;
23228;SDS011;11783;50.350;6.576;2024-01-15T05:08:28;31.02;;;11.27;;
23228;SDS011;11783;50.350;6.576;2024-01-15T05:10:53;32.50;;;11.85;;
23228;SDS011;11783;50.350;6.576;2024-01-15T05:13:19;27.45;;;10.85;;
23228;SDS011;11783;50.350;6.576;2024-01-15T05:15:45;32.15;;;11.55;;
23228;SDS011;11783;50.350;6.576;2024-01-15T05:18:10;28.88;;;12.00;;
23228;SDS011;11783;50.350;6.576;2024-01-15T05:20:35;30.45;;;11.57;;
23228;SDS011;11783;50.350;6.576;2024-01-15T05:23:01;30.40;;;10.90;;
23228;SDS011;11783;50.350;6.576;2024-01-15T05:25:26;29.73;;;11.43;;
23228;SDS011;11783;50.350;6.576;2024-01-15T05:27:52;27.80;;;11.32;;
23228;SDS011;11783;50.350;6.576;2024-01-15T05:30:17;27.35;;;10.77;;
23228;SDS011;11783;50.350;6.576;2024-01-15T05:32:43;27.10;;;11.38;;
23228;SDS011;11783;50.350;6.576;2024-01-15T05:35:08;28.65;;;11.77;;
23228;SDS011;11783;50.350;6.576;2024-01-15T05:37:33;26.90;;;10.77;;
23228;SDS011;11783;50.350;6.576;2024-01-15T05:39:59;28.52;;;11.68;;
23228;SDS011;11783;50.350;6.576;2024-01-15T05:42:24;28.40;;;11.10;;
23228;SDS011;11783;50.350;6.576;2024-01-15T05:44:50;26.60;;;11.85;;
23228;SDS011;11783;50.350;6.576;2024-01-15T05:47:15;26.67;;;11.45;;
23228;SDS011;11783;50.350;6.576;2024-01-15T05:49:41;26.42;;;11.35;;
23228;SDS011;11783;50.350;6.576;2024-01-15T05:52:06;28.17;;;11.18;;
23228;SDS011;11783;50.350;6.576;2024-01-15T05:54:31;29.02;;;10.95;;
23228;SDS011;11783;50.350;6.576;2024-01-15T05:56:57;26.60;;;11.38;;
23228;SDS011;11783;50.350;6.576;2024-01-15T05:59:22;24.75;;;10.95;;
23228;SDS011;11783;50.350;6.576;2024-01-15T06:01:48;27.05;;;11.05;;
23228;SDS011;11783;50.350;6.576;2024-01-15T06:04:13;26.58;;;11.40;;
23228;SDS011;11783;50.350;6.576;2024-01-15T06:06:39;30.40;;;11.57;;
23228;SDS011;11783;50.350;6.576;2024-01-15T06:09:04;29.00;;;11.82;;
23228;SDS011;11783;50.350;6.576;2024-01-15T06:11:32;27.50;;;11.10;;
23228;SDS011;11783;50.350;6.576;2024-01-15T06:13:58;25.65;;;10.63;;
23228;SDS011;11783;50.350;6.576;2024-01-15T06:16:24;28.05;;;11.05;;
23228;SDS011;11783;50.350;6.576;2024-01-15T06:18:49;25.85;;;10.98;;
23228;SDS011;11783;50.350;6.576;2024-01-15T06:21:15;25.20;;;10.60;;
23228;SDS011;11783;50.350;6.576;2024-01-15T06:23:41;27.20;;;10.90;;
23228;SDS011;11783;50.350;6.576;2024-01-15T06:26:06;26.00;;;11.35;;
23228;SDS011;11783;50.350;6.576;2024-01-15T06:28:32;27.00;;;11.20;;
23228;SDS011;11783;50.350;6.576;2024-01-15T06:30:57;29.15;;;11.60;;
23228;SDS011;11783;50.350;6.576;2024-01-15T06:33:23;26.92;;;11.98;;
23228;SDS011;11783;50.350;6.576;2024-01-15T06:35:48;30.52;;;12.55;;
23228;SDS011;11783;50.350;6.576;2024-01-15T06:38:14;30.58;;;12.38;;
23228;SDS011;11783;50.350;6.576;2024-01-15T06:40:40;30.65;;;11.88;;
23228;SDS011;11783;50.350;6.576;2024-01-15T06:43:10;24.33;;;10.63;;
23228;SDS011;11783;50.350;6.576;2024-01-15T06:45:42;32.58;;;12.60;;
23228;SDS011;11783;50.350;6.576;2024-01-15T06:48:08;29.63;;;12.48;;
23228;SDS011;11783;50.350;6.576;2024-01-15T06:50:34;31.67;;;11.88;;
23228;SDS011;11783;50.350;6.576;2024-01-15T06:52:59;31.83;;;13.38;;
23228;SDS011;11783;50.350;6.576;2024-01-15T06:55:24;32.25;;;12.88;;
23228;SDS011;11783;50.350;6.576;2024-01-15T06:57:50;30.85;;;12.23;;
23228;SDS011;11783;50.350;6.576;2024-01-15T07:00:16;29.50;;;12.07;;
23228;SDS011;11783;50.350;6.576;2024-01-15T07:02:44;27.30;;;12.02;;
23228;SDS011;11783;50.350;6.576;2024-01-15T07:05:10;27.00;;;11.10;;
23228;SDS011;11783;50.350;6.576;2024-01-15T07:07:35;27.67;;;11.65;;
23228;SDS011;11783;50.350;6.576;2024-01-15T07:10:01;31.25;;;11.82;;
23228;SDS011;11783;50.350;6.576;2024-01-15T07:12:28;28.08;;;11.32;;
23228;SDS011;11783;50.350;6.576;2024-01-15T07:14:54;30.95;;;12.48;;
23228;SDS011;11783;50.350;6.576;2024-01-15T07:17:20;32.45;;;12.57;;
23228;SDS011;11783;50.350;6.576;2024-01-15T07:19:45;32.33;;;13.68;;
23228;SDS011;11783;50.350;6.576;2024-01-15T07:22:11;30.88;;;12.63;;
23228;SDS011;11783;50.350;6.576;2024-01-15T07:24:37;29.27;;;12.48;;
23228;SDS011;11783;50.350;6.576;2024-01-15T07:27:02;28.92;;;11.75;;
23228;SDS011;11783;50.350;6.576;2024-01-15T07:29:29;26.70;;;10.82;;
23228;SDS011;11783;50.350;6.576;2024-01-15T07:31:55;27.67;;;11.35;;
23228;SDS011;11783;50.350;6.576;2024-01-15T07:34:20;26.35;;;10.75;;
23228;SDS011;11783;50.350;6.576;2024-01-15T07:36:47;25.75;;;11.18;;
23228;SDS011;11783;50.350;6.576;2024-01-15T07:39:12;25.77;;;10.57;;
23228;SDS011;11783;50.350;6.576;2024-01-15T07:41:38;22.08;;;10.50;;
23228;SDS011;11783;50.350;6.576;2024-01-15T07:44:05;25.80;;;11.43;;
23228;SDS011;11783;50.350;6.576;2024-01-15T07:46:30;25.80;;;10.93;;
23228;SDS011;11783;50.350;6.576;2024-01-15T07:48:56;23.33;;;9.65;;
23228;SDS011;11783;50.350;6.576;2024-01-15T07:51:23;25.38;;;10.65;;
23228;SDS011;11783;50.350;6.576;2024-01-15T07:53:48;21.60;;;10.65;;
23228;SDS011;11783;50.350;6.576;2024-01-15T07:56:14;24.15;;;10.82;;
23228;SDS011;11783;50.350;6.576;2024-01-15T07:58:39;20.30;;;9.80;;
23228;SDS011;11783;50.350;6.576;2024-01-15T08:01:04;22.45;;;10.55;;
23228;SDS011;11783;50.350;6.576;2024-01-15T08:03:31;26.10;;;10.35;;
23228;SDS011;11783;50.350;6.576;2024-01-15T08:05:56;26.25;;;11.38;;
23228;SDS011;11783;50.350;6.576;2024-01-15T08:08:24;22.52;;;10.05;;
23228;SDS011;11783;50.350;6.576;2024-01-15T08:10:51;19.98;;;9.65;;
23228;SDS011;11783;50.350;6.576;2024-01-15T08:13:17;20.75;;;9.68;;
23228;SDS011;11783;50.350;6.576;2024-01-15T08:15:42;20.52;;;9.70;;
23228;SDS011;11783;50.350;6.576;2024-01-15T08:18:08;23.05;;;9.45;;
23228;SDS011;11783;50.350;6.576;2024-01-15T08:20:34;26.30;;;10.63;;
23228;SDS011;11783;50.350;6.576;2024-01-15T08:22:59;19.88;;;9.45;;
23228;SDS011;11783;50.350;6.576;2024-01-15T08:25:25;21.80;;;9.65;;
23228;SDS011;11783;50.350;6.576;2024-01-15T08:27:51;21.77;;;10.07;;
23228;SDS011;11783;50.350;6.576;2024-01-15T08:30:17;25.25;;;11.40;;
23228;SDS011;11783;50.350;6.576;2024-01-15T08:32:43;23.80;;;11.52;;
23228;SDS011;11783;50.350;6.576;2024-01-15T08:35:09;26.30;;;12.95;;
23228;SDS011;11783;50.350;6.576;2024-01-15T08:37:35;26.17;;;12.00;;
23228;SDS011;11783;50.350;6.576;2024-01-15T08:40:00;25.75;;;11.25;;
23228;SDS011;11783;50.350;6.576;2024-01-15T08:42:26;21.80;;;10.45;;
23228;SDS011;11783;50.350;6.576;2024-01-15T08:44:51;29.45;;;11.77;;
23228;SDS011;11783;50.350;6.576;2024-01-15T08:47:17;20.60;;;10.13;;
23228;SDS011;11783;50.350;6.576;2024-01-15T08:49:42;23.60;;;10.38;;
23228;SDS011;11783;50.350;6.576;2024-01-15T08:52:09;20.77;;;10.02;;
23228;SDS011;11783;50.350;6.576;2024-01-15T08:54:34;24.60;;;10.75;;
23228;SDS011;11783;50.350;6.576;2024-01-15T08:57:00;20.13;;;9.93;;
23228;SDS011;11783;50.350;6.576;2024-01-15T08:59:25;21.17;;;10.10;;
23228;SDS011;11783;50.350;6.576;2024-01-15T09:01:53;23.08;;;10.85;;
23228;SDS011;11783;50.350;6.576;2024-01-15T09:04:19;22.30;;;10.05;;
23228;SDS011;11783;50.350;6.576;2024-01-15T09:06:45;22.33;;;10.52;;
23228;SDS011;11783;50.350;6.576;2024-01-15T09:09:12;22.30;;;10.65;;
23228;SDS011;11783;50.350;6.576;2024-01-15T09:11:37;23.52;;;10.10;;
23228;SDS011;11783;50.350;6.576;2024-01-15T09:14:03;21.15;;;10.90;;
23228;SDS011;11783;50.350;6.576;2024-01-15T09:16:28;19.35;;;10.05;;
23228;SDS011;11783;50.350;6.576;2024-01-15T09:18:54;20.13;;;9.65;;
23228;SDS011;11783;50.350;6.576;2024-01-15T09:21:21;23.25;;;9.85;;
23228;SDS011;11783;50.350;6.576;2024-01-15T09:23:47;18.08;;;8.82;;
23228;SDS011;11783;50.350;6.576;2024-01-15T09:26:12;16.83;;;8.45;;
23228;SDS011;11783;50.350;6.576;2024-01-15T09:28:38;21.05;;;9.50;;
23228;SDS011;11783;50.350;6.576;2024-01-15T09:31:03;20.27;;;8.90;;
23228;SDS011;11783;50.350;6.576;2024-01-15T09:33:29;21.60;;;9.15;;
23228;SDS011;11783;50.350;6.576;2024-01-15T09:35:54;16.83;;;7.72;;
23228;SDS011;11783;50.350;6.576;2024-01-15T09:38:20;21.80;;;9.35;;
23228;SDS011;11783;50.350;6.576;2024-01-15T09:40:46;16.88;;;7.57;;
23228;SDS011;11783;50.350;6.576;2024-01-15T09:43:12;16.15;;;7.40;;
23228;SDS011;11783;50.350;6.576;2024-01-15T09:45:39;16.95;;;7.63;;
23228;SDS011;11783;50.350;6.576;2024-01-15T09:48:05;16.20;;;7.38;;
23228;SDS011;11783;50.350;6.576;2024-01-15T09:50:31;15.35;;;7.43;;
23228;SDS011;11783;50.350;6.576;2024-01-15T09:52:56;14.25;;;6.47;;
23228;SDS011;11783;50.350;6.576;2024-01-15T09:55:22;15.68;;;7.30;;
23228;SDS011;11783;50.350;6.576;2024-01-15T09:57:48;13.25;;;6.97;;
23228;SDS011;11783;50.350;6.576;2024-01-15T10:00:17;13.57;;;6.38;;
23228;SDS011;11783;50.350;6.576;2024-01-15T10:02:43;13.80;;;6.28;;
23228;SDS011;11783;50.350;6.576;2024-01-15T10:05:09;14.13;;;6.60;;
23228;SDS011;11783;50.350;6.576;2024-01-15T10:07:35;17.05;;;5.82;;
23228;SDS011;11783;50.350;6.576;2024-01-15T10:10:02;14.55;;;6.30;;
23228;SDS011;11783;50.350;6.576;2024-01-15T10:12:28;13.18;;;6.32;;
23228;SDS011;11783;50.350;6.576;2024-01-15T10:14:55;14.43;;;6.00;;
23228;SDS011;11783;50.350;6.576;2024-01-15T10:17:21;14.45;;;5.95;;
23228;SDS011;11783;50.350;6.576;2024-01-15T10:19:46;15.50;;;6.25;;
23228;SDS011;11783;50.350;6.576;2024-01-15T10:22:13;14.68;;;6.15;;
23228;SDS011;11783;50.350;6.576;2024-01-15T10:24:40;15.45;;;6.57;;
23228;SDS011;11783;50.350;6.576;2024-01-15T10:27:06;15.85;;;6.72;;
23228;SDS011;11783;50.350;6.576;2024-01-15T10:29:35;14.75;;;7.30;;
23228;SDS011;11783;50.350;6.576;2024-01-15T10:32:01;12.02;;;5.78;;
23228;SDS011;11783;50.350;6.576;2024-01-15T10:34:27;12.85;;;6.90;;
23228;SDS011;11783;50.350;6.576;2024-01-15T10:36:53;17.02;;;7.47;;
23228;SDS011;11783;50.350;6.576;2024-01-15T10:39:23;14.52;;;6.50;;
23228;SDS011;11783;50.350;6.576;2024-01-15T10:41:49;17.25;;;6.72;;
23228;SDS011;11783;50.350;6.576;2024-01-15T10:44:16;13.73;;;7.15;;
23228;SDS011;11783;50.350;6.576;2024-01-15T10:46:42;16.27;;;6.85;;
23228;SDS011;11783;50.350;6.576;2024-01-15T10:49:08;13.98;;;6.78;;
23228;SDS011;11783;50.350;6.576;2024-01-15T10:51:36;14.80;;;6.53;;
23228;SDS011;11783;50.350;6.576;2024-01-15T10:54:01;16.92;;;6.82;;
23228;SDS011;11783;50.350;6.576;2024-01-15T10:56:27;14.63;;;6.88;;
23228;SDS011;11783;50.350;6.576;2024-01-15T10:58:56;14.23;;;7.22;;
23228;SDS011;11783;50.350;6.576;2024-01-15T11:01:22;15.25;;;7.07;;
23228;SDS011;11783;50.350;6.576;2024-01-15T11:03:48;14.52;;;6.57;;
23228;SDS011;11783;50.350;6.576;2024-01-15T11:06:18;13.35;;;7.25;;
23228;SDS011;11783;50.350;6.576;2024-01-15T11:08:50;15.70;;;6.97;;
23228;SDS011;11783;50.350;6.576;2024-01-15T11:11:17;12.30;;;6.50;;
23228;SDS011;11783;50.350;6.576;2024-01-15T11:13:43;14.52;;;6.28;;
23228;SDS011;11783;50.350;6.576;2024-01-15T11:16:12;13.25;;;6.80;;
23228;SDS011;11783;50.350;6.576;2024-01-15T11:23:46;10.23;;;5.65;;
23228;SDS011;11783;50.350;6.576;2024-01-15T11:28:57;10.20;;;5.13;;
23228;SDS011;11783;50.350;6.576;2024-01-15T11:31:29;10.70;;;5.38;;
23228;SDS011;11783;50.350;6.576;2024-01-15T11:34:15;10.65;;;5.00;;
23228;SDS011;11783;50.350;6.576;2024-01-15T11:42:00;14.13;;;4.72;;
23228;SDS011;11783;50.350;6.576;2024-01-15T11:44:27;8.55;;;4.32;;
23228;SDS011;11783;50.350;6.576;2024-01-15T11:47:02;9.25;;;4.65;;
23228;SDS011;11783;50.350;6.576;2024-01-15T11:52:21;9.20;;;4.75;;
23228;SDS011;11783;50.350;6.576;2024-01-15T11:55:34;13.73;;;4.72;;
23228;SDS011;11783;50.350;6.576;2024-01-15T11:57:40;6.43;;;3.03;;
23228;SDS011;11783;50.350;6.576;2024-01-15T12:02:34;11.55;;;4.15;;
23228;SDS011;11783;50.350;6.576;2024-01-15T12:04:59;11.38;;;4.57;;
23228;SDS011;11783;50.350;6.576;2024-01-15T12:07:25;9.52;;;4.40;;
23228;SDS011;11783;50.350;6.576;2024-01-15T12:09:50;10.18;;;4.32;;
23228;SDS011;11783;50.350;6.576;2024-01-15T12:12:37;8.18;;;4.13;;
23228;SDS011;11783;50.350;6.576;2024-01-15T12:15:23;12.23;;;4.90;;
23228;SDS011;11783;50.350;6.576;2024-01-15T12:17:49;9.00;;;4.88;;
23228;SDS011;11783;50.350;6.576;2024-01-15T12:20:14;10.75;;;4.40;;
23228;SDS011;11783;50.350;6.576;2024-01-15T12:22:41;12.27;;;4.43;;
23228;SDS011;11783;50.350;6.576;2024-01-15T12:25:07;13.23;;;4.28;;
23228;SDS011;11783;50.350;6.576;2024-01-15T12:27:32;10.13;;;4.05;;
23228;SDS011;11783;50.350;6.576;2024-01-15T12:29:58;13.38;;;4.25;;
23228;SDS011;11783;50.350;6.576;2024-01-15T12:32:24;9.45;;;3.97;;
23228;SDS011;11783;50.350;6.576;2024-01-15T12:34:50;8.82;;;3.55;;
23228;SDS011;11783;50.350;6.576;2024-01-15T12:37:18;10.07;;;3.92;;
23228;SDS011;11783;50.350;6.576;2024-01-15T12:39:44;7.10;;;3.55;;
23228;SDS011;11783;50.350;6.576;2024-01-15T12:42:10;15.80;;;3.97;;
23228;SDS011;11783;50.350;6.576;2024-01-15T12:44:35;12.52;;;4.22;;
23228;SDS011;11783;50.350;6.576;2024-01-15T12:47:03;12.38;;;3.40;;
23228;SDS011;11783;50.350;6.576;2024-01-15T12:49:29;12.30;;;3.33;;
23228;SDS011;11783;50.350;6.576;2024-01-15T12:51:56;8.52;;;3.05;;
23228;SDS011;11783;50.350;6.576;2024-01-15T12:54:22;10.63;;;3.05;;
23228;SDS011;11783;50.350;6.576;2024-01-15T12:56:49;10.45;;;2.85;;
23228;SDS011;11783;50.350;6.576;2024-01-15T12:59:14;6.82;;;2.67;;
23228;SDS011;11783;50.350;6.576;2024-01-15T13:01:40;8.93;;;3.10;;
23228;SDS011;11783;50.350;6.576;2024-01-15T13:04:06;8.52;;;2.92;;
23228;SDS011;11783;50.350;6.576;2024-01-15T13:06:33;9.63;;;2.90;;
23228;SDS011;11783;50.350;6.576;2024-01-15T13:08:59;9.68;;;2.72;;
23228;SDS011;11783;50.350;6.576;2024-01-15T13:11:25;10.77;;;3.10;;
23228;SDS011;11783;50.350;6.576;2024-01-15T13:13:50;7.00;;;2.38;;
23228;SDS011;11783;50.350;6.576;2024-01-15T13:16:16;11.55;;;2.63;;
23228;SDS011;11783;50.350;6.576;2024-01-15T13:18:41;7.38;;;2.58;;
23228;SDS011;11783;50.350;6.576;2024-01-15T13:21:07;10.30;;;2.20;;
23228;SDS011;11783;50.350;6.576;2024-01-15T13:23:32;9.18;;;2.13;;
23228;SDS011;11783;50.350;6.576;2024-01-15T13:25:57;8.63;;;2.10;;
23228;SDS011;11783;50.350;6.576;2024-01-15T13:28:23;7.85;;;2.33;;
23228;SDS011;11783;50.350;6.576;2024-01-15T13:30:48;8.77;;;2.50;;
23228;SDS011;11783;50.350;6.576;2024-01-15T13:33:14;11.32;;;2.20;;
23228;SDS011;11783;50.350;6.576;2024-01-15T13:35:39;9.07;;;2.10;;
23228;SDS011;11783;50.350;6.576;2024-01-15T13:38:05;6.20;;;1.90;;
23228;SDS011;11783;50.350;6.576;2024-01-15T13:40:30;9.48;;;2.30;;
23228;SDS011;11783;50.350;6.576;2024-01-15T13:42:56;6.85;;;1.80;;
23228;SDS011;11783;50.350;6.576;2024-01-15T13:45:21;4.75;;;1.85;;
23228;SDS011;11783;50.350;6.576;2024-01-15T13:47:49;6.00;;;2.00;;
23228;SDS011;11783;50.350;6.576;2024-01-15T13:50:15;5.68;;;2.30;;
23228;SDS011;11783;50.350;6.576;2024-01-15T13:52:40;6.15;;;2.30;;
23228;SDS011;11783;50.350;6.576;2024-01-15T13:55:06;6.97;;;2.30;;
23228;SDS011;11783;50.350;6.576;2024-01-15T13:57:33;8.20;;;2.25;;
23228;SDS011;11783;50.350;6.576;2024-01-15T13:59:59;9.02;;;2.58;;
23228;SDS011;11783;50.350;6.576;2024-01-15T14:02:25;4.47;;;1.83;;
23228;SDS011;11783;50.350;6.576;2024-01-15T14:04:50;7.07;;;2.25;;
23228;SDS011;11783;50.350;6.576;2024-01-15T14:07:15;9.95;;;2.65;;
23228;SDS011;11783;50.350;6.576;2024-01-15T14:09:41;6.80;;;2.70;;
23228;SDS011;11783;50.350;6.576;2024-01-15T14:12:07;9.85;;;2.47;;
23228;SDS011;11783;50.350;6.576;2024-01-15T14:14:32;6.88;;;2.42;;
23228;SDS011;11783;50.350;6.576;2024-01-15T14:16:58;7.75;;;2.53;;
23228;SDS011;11783;50.350;6.576;2024-01-15T14:19:23;8.35;;;2.58;;
23228;SDS011;11783;50.350;6.576;2024-01-15T14:21:48;8.77;;;2.63;;
23228;SDS011;11783;50.350;6.576;2024-01-15T14:24:14;6.70;;;2.60;;
23228;SDS011;11783;50.350;6.576;2024-01-15T14:26:40;10.00;;;2.75;;
23228;SDS011;11783;50.350;6.576;2024-01-15T14:29:06;9.32;;;3.58;;
23228;SDS011;11783;50.350;6.576;2024-01-15T14:31:32;7.30;;;2.45;;
23228;SDS011;11783;50.350;6.576;2024-01-15T14:33:58;12.68;;;3.00;;
23228;SDS011;11783;50.350;6.576;2024-01-15T14:36:24;10.00;;;3.08;;
23228;SDS011;11783;50.350;6.576;2024-01-15T14:38:49;10.88;;;2.75;;
23228;SDS011;11783;50.350;6.576;2024-01-15T14:41:15;6.32;;;2.60;;